sensor_id;sensor_type;location;lat;lon;timestamp;pressure;altitude;pressure_sealevel;temperature;humidity
23241;BME280;11789;53.482;9.862;2023-06-22T00:01:49;102021.22;;;17.49;100.00
23241;BME280;11789;53.482;9.862;2023-06-22T00:04:15;102032.59;;;17.45;100.00
23241;BME280;11789;53.482;9.862;2023-06-22T00:06:40;102033.44;;;17.47;100.00
23241;BME280;11789;53.482;9.862;2023-06-22T00:09:06;102020.41;;;17.42;100.00
23241;BME280;11789;53.482;9.862;2023-06-22T00:11:33;102017.84;;;17.37;100.00
23241;BME280;11789;53.482;9.862;2023-06-22T00:13:59;102004.78;;;17.36;100.00
23241;BME280;11789;53.482;9.862;2023-06-22T00:16:24;102012.66;;;17.34;100.00
23241;BME280;11789;53.482;9.862;2023-06-22T00:18:50;102012.66;;;17.33;100.00
23241;BME280;11789;53.482;9.862;2023-06-22T00:21:15;102010.91;;;17.33;100.00
23241;BME280;11789;53.482;9.862;2023-06-22T00:23:40;102012.69;;;17.31;100.00
23241;BME280;11789;53.482;9.862;2023-06-22T00:26:06;102011.78;;;17.32;100.00
23241;BME280;11789;53.482;9.862;2023-06-22T00:28:32;102011.78;;;17.32;100.00
23241;BME280;11789;53.482;9.862;2023-06-22T00:30:57;102014.38;;;17.35;100.00
23241;BME280;11789;53.482;9.862;2023-06-22T00:33:23;102023.97;;;17.33;100.00
23241;BME280;11789;53.482;9.862;2023-06-22T00:35:48;102019.63;;;17.32;100.00
23241;BME280;11789;53.482;9.862;2023-06-22T00:38:18;102024.91;;;17.29;100.00
23241;BME280;11789;53.482;9.862;2023-06-22T00:40:43;102021.44;;;17.27;100.00
23241;BME280;11789;53.482;9.862;2023-06-22T00:43:09;102026.66;;;17.27;100.00
23241;BME280;11789;53.482;9.862;2023-06-22T00:45:34;102022.31;;;17.29;100.00
23241;BME280;11789;53.482;9.862;2023-06-22T00:48:00;102022.28;;;17.28;100.00
23241;BME280;11789;53.482;9.862;2023-06-22T00:50:28;102029.28;;;17.27;100.00
23241;BME280;11789;53.482;9.862;2023-06-22T00:52:59;102025.78;;;17.27;100.00
23241;BME280;11789;53.482;9.862;2023-06-22T00:55:26;102030.16;;;17.26;100.00
23241;BME280;11789;53.482;9.862;2023-06-22T00:57:52;102032.78;;;17.23;100.00
23241;BME280;11789;53.482;9.862;2023-06-22T01:00:22;102031.06;;;17.22;100.00
23241;BME280;11789;53.482;9.862;2023-06-22T01:02:52;102034.53;;;17.23;100.00
23241;BME280;11789;53.482;9.862;2023-06-22T01:05:19;102033.59;;;17.28;100.00
23241;BME280;11789;53.482;9.862;2023-06-22T01:10:28;102030.81;;;17.47;100.00
23241;BME280;11789;53.482;9.862;2023-06-22T01:13:02;102029.13;;;17.41;100.00
23241;BME280;11789;53.482;9.862;2023-06-22T01:16:02;102026.63;;;17.30;100.00
23241;BME280;11789;53.482;9.862;2023-06-22T01:18:30;102040.63;;;17.26;100.00
23241;BME280;11789;53.482;9.862;2023-06-22T01:20:57;102025.00;;;17.20;100.00
23241;BME280;11789;53.482;9.862;2023-06-22T01:23:26;102022.41;;;17.19;100.00
23241;BME280;11789;53.482;9.862;2023-06-22T01:31:04;102019.69;;;17.28;100.00
23241;BME280;11789;53.482;9.862;2023-06-22T01:33:37;102013.69;;;17.20;100.00
23241;BME280;11789;53.482;9.862;2023-06-22T01:36:04;102010.28;;;17.10;100.00
23241;BME280;11789;53.482;9.862;2023-06-22T01:38:32;102010.31;;;17.05;100.00
23241;BME280;11789;53.482;9.862;2023-06-22T01:40:59;102012.13;;;17.00;100.00
23241;BME280;11789;53.482;9.862;2023-06-22T01:43:26;102018.25;;;16.96;100.00
23241;BME280;11789;53.482;9.862;2023-06-22T01:45:57;102029.59;;;16.94;100.00
23241;BME280;11789;53.482;9.862;2023-06-22T01:52:05;102020.06;;;16.88;100.00
23241;BME280;11789;53.482;9.862;2023-06-22T01:54:31;102027.06;;;16.84;100.00
23241;BME280;11789;53.482;9.862;2023-06-22T01:56:57;102018.41;;;16.79;100.00
23241;BME280;11789;53.482;9.862;2023-06-22T01:59:30;102027.13;;;16.78;100.00
23241;BME280;11789;53.482;9.862;2023-06-22T02:02:02;102020.13;;;16.80;100.00
23241;BME280;11789;53.482;9.862;2023-06-22T02:04:41;102018.34;;;16.85;100.00
23241;BME280;11789;53.482;9.862;2023-06-22T02:07:13;102016.56;;;16.91;100.00
23241;BME280;11789;53.482;9.862;2023-06-22T02:09:44;102025.22;;;16.93;100.00
23241;BME280;11789;53.482;9.862;2023-06-22T02:12:11;102016.59;;;16.84;100.00
23241;BME280;11789;53.482;9.862;2023-06-22T02:14:38;102011.44;;;16.78;100.00
23241;BME280;11789;53.482;9.862;2023-06-22T02:17:04;102015.81;;;16.72;100.00
23241;BME280;11789;53.482;9.862;2023-06-22T02:19:36;102020.19;;;16.68;100.00
23241;BME280;11789;53.482;9.862;2023-06-22T02:22:02;102014.16;;;16.63;100.00
23241;BME280;11789;53.482;9.862;2023-06-22T02:24:28;102014.19;;;16.58;100.00
23241;BME280;11789;53.482;9.862;2023-06-22T02:26:57;102010.69;;;16.59;100.00
23241;BME280;11789;53.482;9.862;2023-06-22T02:29:23;102000.19;;;16.64;100.00
23241;BME280;11789;53.482;9.862;2023-06-22T02:31:49;102002.78;;;16.69;100.00
23241;BME280;11789;53.482;9.862;2023-06-22T02:34:14;102006.25;;;16.72;100.00
23241;BME280;11789;53.482;9.862;2023-06-22T02:36:47;102007.16;;;16.62;100.00
23241;BME280;11789;53.482;9.862;2023-06-22T02:39:23;102001.12;;;16.55;100.00
23241;BME280;11789;53.482;9.862;2023-06-22T02:41:53;102008.12;;;16.50;100.00
23241;BME280;11789;53.482;9.862;2023-06-22T02:44:19;102005.53;;;16.47;100.00
23241;BME280;11789;53.482;9.862;2023-06-22T02:46:45;102007.25;;;16.53;100.00
23241;BME280;11789;53.482;9.862;2023-06-22T02:49:11;101996.78;;;16.54;100.00
23241;BME280;11789;53.482;9.862;2023-06-22T02:51:39;102002.87;;;16.58;100.00
23241;BME280;11789;53.482;9.862;2023-06-22T02:54:05;102004.62;;;16.51;100.00
23241;BME280;11789;53.482;9.862;2023-06-22T02:56:31;102001.22;;;16.42;100.00
23241;BME280;11789;53.482;9.862;2023-06-22T02:58:56;101996.91;;;16.38;100.00
23241;BME280;11789;53.482;9.862;2023-06-22T03:01:29;102002.13;;;16.39;100.00
23241;BME280;11789;53.482;9.862;2023-06-22T03:03:58;102002.97;;;16.44;100.00
23241;BME280;11789;53.482;9.862;2023-06-22T03:06:24;102003.84;;;16.43;100.00
23241;BME280;11789;53.482;9.862;2023-06-22T03:09:00;102012.59;;;16.34;100.00
23241;BME280;11789;53.482;9.862;2023-06-22T03:11:26;102007.41;;;16.30;100.00
23241;BME280;11789;53.482;9.862;2023-06-22T03:13:52;102010.03;;;16.28;100.00
23241;BME280;11789;53.482;9.862;2023-06-22T03:16:18;102004.81;;;16.25;100.00
23241;BME280;11789;53.482;9.862;2023-06-22T03:18:44;102008.31;;;16.20;100.00
23241;BME280;11789;53.482;9.862;2023-06-22T03:21:10;102005.72;;;16.18;100.00
23241;BME280;11789;53.482;9.862;2023-06-22T03:23:35;102013.53;;;16.17;100.00
23241;BME280;11789;53.482;9.862;2023-06-22T03:26:01;102017.06;;;16.13;100.00
23241;BME280;11789;53.482;9.862;2023-06-22T03:28:27;102022.28;;;16.09;100.00
23241;BME280;11789;53.482;9.862;2023-06-22T03:30:52;102023.19;;;16.07;100.00
23241;BME280;11789;53.482;9.862;2023-06-22T03:33:18;102023.13;;;16.12;100.00
23241;BME280;11789;53.482;9.862;2023-06-22T03:35:43;102029.22;;;16.15;100.00
23241;BME280;11789;53.482;9.862;2023-06-22T03:38:09;102027.44;;;16.23;100.00
23241;BME280;11789;53.482;9.862;2023-06-22T03:40:34;102033.50;;;16.28;100.00
23241;BME280;11789;53.482;9.862;2023-06-22T03:43:00;102033.47;;;16.31;100.00
23241;BME280;11789;53.482;9.862;2023-06-22T03:45:25;102030.88;;;16.31;100.00
23241;BME280;11789;53.482;9.862;2023-06-22T03:47:50;102025.63;;;16.31;100.00
23241;BME280;11789;53.482;9.862;2023-06-22T03:50:16;102037.84;;;16.32;100.00
23241;BME280;11789;53.482;9.862;2023-06-22T03:52:42;102044.78;;;16.30;100.00
23241;BME280;11789;53.482;9.862;2023-06-22T03:55:07;102044.78;;;16.30;100.00
23241;BME280;11789;53.482;9.862;2023-06-22T03:57:33;102040.44;;;16.31;100.00
23241;BME280;11789;53.482;9.862;2023-06-22T03:59:59;102038.66;;;16.36;100.00
23241;BME280;11789;53.482;9.862;2023-06-22T04:02:25;102042.16;;;16.38;100.00
23241;BME280;11789;53.482;9.862;2023-06-22T04:04:51;102044.72;;;16.41;100.00
23241;BME280;11789;53.482;9.862;2023-06-22T04:07:16;102046.47;;;16.44;100.00
23241;BME280;11789;53.482;9.862;2023-06-22T04:09:43;102044.72;;;16.44;100.00
23241;BME280;11789;53.482;9.862;2023-06-22T04:12:09;102055.12;;;16.47;100.00
23241;BME280;11789;53.482;9.862;2023-06-22T04:14:34;102055.09;;;16.53;100.00
23241;BME280;11789;53.482;9.862;2023-06-22T04:16:59;102049.84;;;16.56;100.00
23241;BME280;11789;53.482;9.862;2023-06-22T04:19:25;102051.59;;;16.57;100.00
23241;BME280;11789;53.482;9.862;2023-06-22T04:21:51;102052.44;;;16.61;100.00
23241;BME280;11789;53.482;9.862;2023-06-22T04:24:16;102059.41;;;16.64;100.00
23241;BME280;11789;53.482;9.862;2023-06-22T04:26:41;102056.75;;;16.67;100.00
23241;BME280;11789;53.482;9.862;2023-06-22T04:29:07;102066.31;;;16.69;100.00
23241;BME280;11789;53.482;9.862;2023-06-22T04:31:37;102060.22;;;16.73;100.00
23241;BME280;11789;53.482;9.862;2023-06-22T04:34:07;102066.28;;;16.80;100.00
23241;BME280;11789;53.482;9.862;2023-06-22T04:36:37;102067.13;;;16.83;100.00
23241;BME280;11789;53.482;9.862;2023-06-22T04:39:07;102057.53;;;16.85;100.00
23241;BME280;11789;53.482;9.862;2023-06-22T04:41:35;102054.91;;;16.89;100.00
23241;BME280;11789;53.482;9.862;2023-06-22T04:44:08;102059.22;;;16.91;100.00
23241;BME280;11789;53.482;9.862;2023-06-22T04:46:33;102067.00;;;16.96;100.00
23241;BME280;11789;53.482;9.862;2023-06-22T04:49:04;102065.22;;;17.01;100.00
23241;BME280;11789;53.482;9.862;2023-06-22T04:51:32;102067.78;;;17.08;100.00
23241;BME280;11789;53.482;9.862;2023-06-22T04:53:57;102068.56;;;17.18;100.00
23241;BME280;11789;53.482;9.862;2023-06-22T04:56:26;102060.63;;;17.27;100.00
23241;BME280;11789;53.482;9.862;2023-06-22T04:58:53;102057.06;;;17.36;100.00
23241;BME280;11789;53.482;9.862;2023-06-22T05:01:22;102054.31;;;17.50;100.00
23241;BME280;11789;53.482;9.862;2023-06-22T05:03:48;102061.22;;;17.57;100.00
23241;BME280;11789;53.482;9.862;2023-06-22T05:06:13;102056.84;;;17.59;100.00
23241;BME280;11789;53.482;9.862;2023-06-22T05:08:40;102055.06;;;17.61;100.00
23241;BME280;11789;53.482;9.862;2023-06-22T05:11:06;102062.03;;;17.62;100.00
23241;BME280;11789;53.482;9.862;2023-06-22T05:13:32;102063.72;;;17.68;100.00
23241;BME280;11789;53.482;9.862;2023-06-22T05:15:58;102065.41;;;17.73;100.00
23241;BME280;11789;53.482;9.862;2023-06-22T05:18:32;102064.50;;;17.77;100.00
23241;BME280;11789;53.482;9.862;2023-06-22T05:20:59;102061.88;;;17.80;100.00
23241;BME280;11789;53.482;9.862;2023-06-22T05:23:25;102059.16;;;17.89;100.00
23241;BME280;11789;53.482;9.862;2023-06-22T05:25:51;102059.06;;;17.96;100.00
23241;BME280;11789;53.482;9.862;2023-06-22T05:28:16;102064.16;;;18.06;100.00
23241;BME280;11789;53.482;9.862;2023-06-22T05:30:42;102059.69;;;18.16;100.00
23241;BME280;11789;53.482;9.862;2023-06-22T05:33:07;102062.16;;;18.27;100.00
23241;BME280;11789;53.482;9.862;2023-06-22T05:35:32;102059.34;;;18.40;100.00
23241;BME280;11789;53.482;9.862;2023-06-22T05:37:58;102062.69;;;18.52;100.00
23241;BME280;11789;53.482;9.862;2023-06-22T05:40:23;102063.44;;;18.58;100.00
23241;BME280;11789;53.482;9.862;2023-06-22T05:42:49;102064.19;;;18.65;100.00
23241;BME280;11789;53.482;9.862;2023-06-22T05:45:14;102061.47;;;18.74;100.00
23241;BME280;11789;53.482;9.862;2023-06-22T05:47:40;102060.59;;;18.75;99.02
23241;BME280;11789;53.482;9.862;2023-06-22T05:50:06;102057.97;;;18.77;96.56
23241;BME280;11789;53.482;9.862;2023-06-22T05:52:34;102052.53;;;18.87;96.17
23241;BME280;11789;53.482;9.862;2023-06-22T05:55:02;102059.28;;;19.01;95.17
23241;BME280;11789;53.482;9.862;2023-06-22T05:57:27;102053.94;;;19.08;93.32
23241;BME280;11789;53.482;9.862;2023-06-22T05:59:53;102055.62;;;19.11;92.69
23241;BME280;11789;53.482;9.862;2023-06-22T06:02:19;102055.56;;;19.17;92.68
23241;BME280;11789;53.482;9.862;2023-06-22T06:04:45;102050.19;;;19.23;92.51
23241;BME280;11789;53.482;9.862;2023-06-22T06:07:10;102053.44;;;19.37;92.67
23241;BME280;11789;53.482;9.862;2023-06-22T06:09:35;102054.13;;;19.45;92.24
23241;BME280;11789;53.482;9.862;2023-06-22T06:12:01;102054.91;;;19.51;91.14
23241;BME280;11789;53.482;9.862;2023-06-22T06:14:28;102053.91;;;19.58;89.77
23241;BME280;11789;53.482;9.862;2023-06-22T06:16:53;102055.66;;;19.59;89.04
23241;BME280;11789;53.482;9.862;2023-06-22T06:19:19;102056.50;;;19.62;87.85
23241;BME280;11789;53.482;9.862;2023-06-22T06:21:44;102045.62;;;19.81;87.79
23241;BME280;11789;53.482;9.862;2023-06-22T06:24:11;102044.63;;;19.86;84.62
23241;BME280;11789;53.482;9.862;2023-06-22T06:26:37;102047.16;;;19.91;84.04
23241;BME280;11789;53.482;9.862;2023-06-22T06:29:02;102039.19;;;19.95;84.65
23241;BME280;11789;53.482;9.862;2023-06-22T06:31:28;102044.31;;;20.02;84.59
23241;BME280;11789;53.482;9.862;2023-06-22T06:33:54;102052.75;;;20.16;84.13
23241;BME280;11789;53.482;9.862;2023-06-22T06:36:20;102046.38;;;20.28;82.65
23241;BME280;11789;53.482;9.862;2023-06-22T06:38:46;102036.66;;;20.31;82.93
23241;BME280;11789;53.482;9.862;2023-06-22T06:41:16;102041.75;;;20.37;81.53
23241;BME280;11789;53.482;9.862;2023-06-22T06:43:42;102039.06;;;20.40;80.59
23241;BME280;11789;53.482;9.862;2023-06-22T06:46:10;102037.31;;;20.41;78.98
23241;BME280;11789;53.482;9.862;2023-06-22T06:48:36;102038.12;;;20.44;78.90
23241;BME280;11789;53.482;9.862;2023-06-22T06:51:01;102033.03;;;20.37;78.85
23241;BME280;11789;53.482;9.862;2023-06-22T06:53:27;102030.37;;;20.38;78.71
23241;BME280;11789;53.482;9.862;2023-06-22T06:55:54;102027.72;;;20.40;78.37
23241;BME280;11789;53.482;9.862;2023-06-22T06:58:19;102032.19;;;20.35;79.69
23241;BME280;11789;53.482;9.862;2023-06-22T07:00:45;102027.91;;;20.31;80.15
23241;BME280;11789;53.482;9.862;2023-06-22T07:03:10;102020.09;;;20.29;80.69
23241;BME280;11789;53.482;9.862;2023-06-22T07:05:35;102024.47;;;20.27;80.89
23241;BME280;11789;53.482;9.862;2023-06-22T07:08:01;102027.09;;;20.27;80.36
23241;BME280;11789;53.482;9.862;2023-06-22T07:10:29;102027.19;;;20.24;80.39
23241;BME280;11789;53.482;9.862;2023-06-22T07:12:54;102032.31;;;20.30;80.31
23241;BME280;11789;53.482;9.862;2023-06-22T07:15:20;102029.53;;;20.36;79.95
23241;BME280;11789;53.482;9.862;2023-06-22T07:17:45;102038.16;;;20.43;79.62
23241;BME280;11789;53.482;9.862;2023-06-22T07:20:11;102031.16;;;20.42;78.52
23241;BME280;11789;53.482;9.862;2023-06-22T07:22:38;102032.97;;;20.40;79.50
23241;BME280;11789;53.482;9.862;2023-06-22T07:25:04;102024.91;;;20.47;79.41
23241;BME280;11789;53.482;9.862;2023-06-22T07:27:36;102037.03;;;20.55;78.82
23241;BME280;11789;53.482;9.862;2023-06-22T07:30:04;102033.44;;;20.59;77.71
23241;BME280;11789;53.482;9.862;2023-06-22T07:32:29;102028.06;;;20.63;77.78
23241;BME280;11789;53.482;9.862;2023-06-22T07:34:55;102029.75;;;20.66;76.86
23241;BME280;11789;53.482;9.862;2023-06-22T07:37:21;102035.75;;;20.71;76.38
23241;BME280;11789;53.482;9.862;2023-06-22T07:39:46;102037.22;;;20.83;76.50
23241;BME280;11789;53.482;9.862;2023-06-22T07:42:12;102035.38;;;20.86;76.03
23241;BME280;11789;53.482;9.862;2023-06-22T07:44:37;102037.72;;;20.98;75.41
23241;BME280;11789;53.482;9.862;2023-06-22T07:47:03;102033.03;;;21.10;74.90
23241;BME280;11789;53.482;9.862;2023-06-22T07:49:28;102031.03;;;21.19;76.09
23241;BME280;11789;53.482;9.862;2023-06-22T07:51:54;102037.09;;;21.21;74.38
23241;BME280;11789;53.482;9.862;2023-06-22T07:54:20;102031.78;;;21.23;74.87
23241;BME280;11789;53.482;9.862;2023-06-22T07:56:46;102032.31;;;21.37;74.36
23241;BME280;11789;53.482;9.862;2023-06-22T07:59:11;102035.38;;;21.55;74.71
23241;BME280;11789;53.482;9.862;2023-06-22T08:01:37;102035.38;;;21.55;74.71
23241;BME280;11789;53.482;9.862;2023-06-22T08:04:02;102033.69;;;21.52;73.71
23241;BME280;11789;53.482;9.862;2023-06-22T08:06:30;102035.41;;;21.53;75.07
23241;BME280;11789;53.482;9.862;2023-06-22T08:08:56;102035.53;;;21.48;72.81
23241;BME280;11789;53.482;9.862;2023-06-22T08:11:22;102032.88;;;21.48;73.18
23241;BME280;11789;53.482;9.862;2023-06-22T08:13:49;102038.38;;;21.41;72.38
23241;BME280;11789;53.482;9.862;2023-06-22T08:16:15;102032.88;;;21.50;72.24
23241;BME280;11789;53.482;9.862;2023-06-22T08:18:40;102027.38;;;21.58;73.39
23241;BME280;11789;53.482;9.862;2023-06-22T08:21:06;102029.56;;;21.73;73.92
23241;BME280;11789;53.482;9.862;2023-06-22T08:23:31;102029.25;;;21.84;72.80
23241;BME280;11789;53.482;9.862;2023-06-22T08:25:56;102025.63;;;21.88;69.53
23241;BME280;11789;53.482;9.862;2023-06-22T08:28:22;102022.19;;;21.86;69.28
23241;BME280;11789;53.482;9.862;2023-06-22T08:30:47;102013.97;;;21.96;69.90
23241;BME280;11789;53.482;9.862;2023-06-22T08:33:13;102012.87;;;22.03;69.38
23241;BME280;11789;53.482;9.862;2023-06-22T08:35:38;102003.91;;;22.09;69.31
23241;BME280;11789;53.482;9.862;2023-06-22T08:38:04;102013.53;;;22.12;68.94
23241;BME280;11789;53.482;9.862;2023-06-22T08:40:29;102031.72;;;22.21;68.19
23241;BME280;11789;53.482;9.862;2023-06-22T08:42:55;102023.81;;;22.21;66.62
23241;BME280;11789;53.482;9.862;2023-06-22T08:45:20;102021.25;;;22.18;66.70
23241;BME280;11789;53.482;9.862;2023-06-22T08:47:46;102015.91;;;22.21;66.99
23241;BME280;11789;53.482;9.862;2023-06-22T08:50:12;102012.94;;;22.30;68.06
23241;BME280;11789;53.482;9.862;2023-06-22T08:52:39;102005.69;;;22.38;66.18
23241;BME280;11789;53.482;9.862;2023-06-22T08:55:07;101995.78;;;22.46;66.35
23241;BME280;11789;53.482;9.862;2023-06-22T08:57:33;101994.84;;;22.47;64.72
23241;BME280;11789;53.482;9.862;2023-06-22T08:59:59;102001.84;;;22.48;65.36
23241;BME280;11789;53.482;9.862;2023-06-22T09:02:27;102004.34;;;22.53;65.19
23241;BME280;11789;53.482;9.862;2023-06-22T09:04:57;101992.81;;;22.56;63.97
23241;BME280;11789;53.482;9.862;2023-06-22T09:07:23;101991.78;;;22.61;63.49
23241;BME280;11789;53.482;9.862;2023-06-22T09:09:50;101996.13;;;22.62;62.87
23241;BME280;11789;53.482;9.862;2023-06-22T09:12:16;101990.22;;;22.54;63.04
23241;BME280;11789;53.482;9.862;2023-06-22T09:14:41;101978.63;;;22.60;64.16
23241;BME280;11789;53.482;9.862;2023-06-22T09:17:07;101991.50;;;22.69;64.00
23241;BME280;11789;53.482;9.862;2023-06-22T09:19:32;101984.25;;;22.75;62.62
23241;BME280;11789;53.482;9.862;2023-06-22T09:21:58;101974.31;;;22.84;62.95
23241;BME280;11789;53.482;9.862;2023-06-22T09:24:24;101980.16;;;22.93;63.31
23241;BME280;11789;53.482;9.862;2023-06-22T09:26:49;101967.56;;;23.01;61.94
23241;BME280;11789;53.482;9.862;2023-06-22T09:29:15;101968.16;;;23.10;61.76
23241;BME280;11789;53.482;9.862;2023-06-22T09:31:41;101969.13;;;23.07;61.35
23241;BME280;11789;53.482;9.862;2023-06-22T09:34:06;101968.78;;;23.16;62.50
23241;BME280;11789;53.482;9.862;2023-06-22T09:36:31;101971.41;;;23.16;61.39
23241;BME280;11789;53.482;9.862;2023-06-22T09:38:57;101960.66;;;23.22;62.26
23241;BME280;11789;53.482;9.862;2023-06-22T09:41:24;101961.41;;;23.26;62.60
23241;BME280;11789;53.482;9.862;2023-06-22T09:43:50;101955.03;;;23.31;61.76
23241;BME280;11789;53.482;9.862;2023-06-22T09:46:16;101950.69;;;23.30;60.06
23241;BME280;11789;53.482;9.862;2023-06-22T09:48:41;101955.97;;;23.30;61.80
23241;BME280;11789;53.482;9.862;2023-06-22T09:51:07;101960.38;;;23.30;61.80
23241;BME280;11789;53.482;9.862;2023-06-22T09:53:32;101954.16;;;23.33;63.61
23241;BME280;11789;53.482;9.862;2023-06-22T09:56:00;101946.84;;;23.39;62.22
23241;BME280;11789;53.482;9.862;2023-06-22T09:58:25;101949.38;;;23.42;61.98
23241;BME280;11789;53.482;9.862;2023-06-22T10:00:51;101944.66;;;23.50;63.10
23241;BME280;11789;53.482;9.862;2023-06-22T10:03:16;101943.81;;;23.50;63.09
23241;BME280;11789;53.482;9.862;2023-06-22T10:05:42;101939.56;;;23.46;61.87
23241;BME280;11789;53.482;9.862;2023-06-22T10:08:07;101944.91;;;23.44;61.66
23241;BME280;11789;53.482;9.862;2023-06-22T10:10:35;101941.34;;;23.45;62.50
23241;BME280;11789;53.482;9.862;2023-06-22T10:13:08;101937.84;;;23.45;61.61
23241;BME280;11789;53.482;9.862;2023-06-22T10:15:37;101936.66;;;23.53;61.65
23241;BME280;11789;53.482;9.862;2023-06-22T10:18:03;101939.91;;;23.60;61.89
23241;BME280;11789;53.482;9.862;2023-06-22T10:20:29;101930.97;;;23.64;62.55
23241;BME280;11789;53.482;9.862;2023-06-22T10:22:54;101933.66;;;23.63;62.75
23241;BME280;11789;53.482;9.862;2023-06-22T10:25:21;101928.41;;;23.61;62.88
23241;BME280;11789;53.482;9.862;2023-06-22T10:27:46;101927.50;;;23.64;63.36
23241;BME280;11789;53.482;9.862;2023-06-22T10:30:12;101920.25;;;23.69;63.51
23241;BME280;11789;53.482;9.862;2023-06-22T10:32:39;101915.72;;;23.72;63.27
23241;BME280;11789;53.482;9.862;2023-06-22T10:35:05;101920.19;;;23.70;62.19
23241;BME280;11789;53.482;9.862;2023-06-22T10:37:31;101904.28;;;23.72;63.30
23241;BME280;11789;53.482;9.862;2023-06-22T10:39:56;101910.06;;;23.81;62.96
23241;BME280;11789;53.482;9.862;2023-06-22T10:42:23;101909.88;;;23.86;61.96
23241;BME280;11789;53.482;9.862;2023-06-22T10:44:48;101910.81;;;23.85;61.95
23241;BME280;11789;53.482;9.862;2023-06-22T10:47:14;101911.78;;;23.83;61.91
23241;BME280;11789;53.482;9.862;2023-06-22T10:49:40;101904.66;;;23.85;62.10
23241;BME280;11789;53.482;9.862;2023-06-22T10:52:07;101897.59;;;23.85;62.28
23241;BME280;11789;53.482;9.862;2023-06-22T10:54:33;101898.94;;;23.95;62.50
23241;BME280;11789;53.482;9.862;2023-06-22T10:57:00;101896.06;;;24.01;62.84
23241;BME280;11789;53.482;9.862;2023-06-22T10:59:25;101897.53;;;24.08;63.16
23241;BME280;11789;53.482;9.862;2023-06-22T11:01:51;101896.06;;;24.01;62.43
23241;BME280;11789;53.482;9.862;2023-06-22T11:04:17;101890.66;;;24.04;62.04
23241;BME280;11789;53.482;9.862;2023-06-22T11:06:43;101890.50;;;24.07;62.42
23241;BME280;11789;53.482;9.862;2023-06-22T11:09:08;101894.56;;;24.16;63.83
23241;BME280;11789;53.482;9.862;2023-06-22T11:11:34;101892.50;;;24.23;62.29
23241;BME280;11789;53.482;9.862;2023-06-22T11:13:59;101890.81;;;24.22;62.93
23241;BME280;11789;53.482;9.862;2023-06-22T11:16:25;101882.69;;;24.26;62.79
23241;BME280;11789;53.482;9.862;2023-06-22T11:18:50;101887.13;;;24.26;61.15
23241;BME280;11789;53.482;9.862;2023-06-22T11:21:16;101886.19;;;24.27;61.37
23241;BME280;11789;53.482;9.862;2023-06-22T11:23:42;101877.09;;;24.34;62.35
23241;BME280;11789;53.482;9.862;2023-06-22T11:26:07;101871.84;;;24.32;61.04
23241;BME280;11789;53.482;9.862;2023-06-22T11:28:33;101871.19;;;24.27;61.79
23241;BME280;11789;53.482;9.862;2023-06-22T11:30:58;101865.72;;;24.32;62.21
23241;BME280;11789;53.482;9.862;2023-06-22T11:33:24;101885.16;;;24.31;61.03
23241;BME280;11789;53.482;9.862;2023-06-22T11:35:49;101875.34;;;24.33;60.60
23241;BME280;11789;53.482;9.862;2023-06-22T11:38:15;101879.84;;;24.31;61.17
23241;BME280;11789;53.482;9.862;2023-06-22T11:40:40;101878.94;;;24.32;61.21
23241;BME280;11789;53.482;9.862;2023-06-22T11:43:06;101869.91;;;24.38;62.26
23241;BME280;11789;53.482;9.862;2023-06-22T11:45:31;101869.97;;;24.36;61.49
23241;BME280;11789;53.482;9.862;2023-06-22T11:47:56;101871.94;;;24.31;62.08
23241;BME280;11789;53.482;9.862;2023-06-22T11:50:22;101864.00;;;24.31;62.29
23241;BME280;11789;53.482;9.862;2023-06-22T11:52:47;101857.78;;;24.32;61.07
23241;BME280;11789;53.482;9.862;2023-06-22T11:55:13;101859.50;;;24.33;61.68
23241;BME280;11789;53.482;9.862;2023-06-22T11:57:53;101851.53;;;24.34;62.05
23241;BME280;11789;53.482;9.862;2023-06-22T12:00:19;101856.69;;;24.38;61.02
23241;BME280;11789;53.482;9.862;2023-06-22T12:02:45;101845.22;;;24.39;62.28
23241;BME280;11789;53.482;9.862;2023-06-22T12:05:11;101844.13;;;24.43;62.17
23241;BME280;11789;53.482;9.862;2023-06-22T12:07:37;101839.19;;;24.55;62.16
23241;BME280;11789;53.482;9.862;2023-06-22T12:10:03;101832.91;;;24.58;60.60
23241;BME280;11789;53.482;9.862;2023-06-22T12:12:29;101833.63;;;24.62;60.64
23241;BME280;11789;53.482;9.862;2023-06-22T12:14:54;101828.22;;;24.65;60.55
23241;BME280;11789;53.482;9.862;2023-06-22T12:17:20;101826.34;;;24.67;61.61
23241;BME280;11789;53.482;9.862;2023-06-22T12:19:45;101821.72;;;24.72;61.62
23241;BME280;11789;53.482;9.862;2023-06-22T12:22:11;101818.94;;;24.75;62.67
23241;BME280;11789;53.482;9.862;2023-06-22T12:24:36;101814.44;;;24.77;61.85
23241;BME280;11789;53.482;9.862;2023-06-22T12:27:02;101809.31;;;24.74;61.59
23241;BME280;11789;53.482;9.862;2023-06-22T12:29:29;101816.44;;;24.72;61.49
23241;BME280;11789;53.482;9.862;2023-06-22T12:31:54;101805.06;;;24.70;61.75
23241;BME280;11789;53.482;9.862;2023-06-22T12:34:20;101806.66;;;24.74;62.38
23241;BME280;11789;53.482;9.862;2023-06-22T12:36:45;101803.06;;;24.75;61.75
23241;BME280;11789;53.482;9.862;2023-06-22T12:39:13;101800.34;;;24.76;62.43
23241;BME280;11789;53.482;9.862;2023-06-22T12:41:38;101794.09;;;24.79;62.86
23241;BME280;11789;53.482;9.862;2023-06-22T12:44:04;101799.22;;;24.82;62.30
23241;BME280;11789;53.482;9.862;2023-06-22T12:46:29;101795.63;;;24.83;61.99
23241;BME280;11789;53.482;9.862;2023-06-22T12:49:02;101793.78;;;24.85;62.14
23241;BME280;11789;53.482;9.862;2023-06-22T12:51:27;101781.50;;;24.84;61.47
23241;BME280;11789;53.482;9.862;2023-06-22T12:53:52;101783.34;;;24.82;61.73